sensor_id;sensor_type;location;lat;lon;timestamp;P1;durP1;ratioP1;P2;durP2;ratioP2
55288;SDS011;41154;45.394;5.734;2023-08-20T00:00:45;9.00;;;4.28;;
55288;SDS011;41154;45.394;5.734;2023-08-20T00:03:12;8.13;;;3.88;;
55288;SDS011;41154;45.394;5.734;2023-08-20T00:05:41;8.05;;;3.53;;
55288;SDS011;41154;45.394;5.734;2023-08-20T00:08:07;10.30;;;4.00;;
55288;SDS011;41154;45.394;5.734;2023-08-20T00:10:33;7.63;;;4.13;;
55288;SDS011;41154;45.394;5.734;2023-08-20T00:12:59;6.53;;;4.07;;
55288;SDS011;41154;45.394;5.734;2023-08-20T00:15:24;4.93;;;3.40;;
55288;SDS011;41154;45.394;5.734;2023-08-20T00:17:54;8.18;;;4.00;;
55288;SDS011;41154;45.394;5.734;2023-08-20T00:20:20;8.95;;;3.70;;
55288;SDS011;41154;45.394;5.734;2023-08-20T00:22:47;7.47;;;4.13;;
55288;SDS011;41154;45.394;5.734;2023-08-20T00:25:13;10.57;;;4.30;;
55288;SDS011;41154;45.394;5.734;2023-08-20T00:27:40;6.63;;;3.97;;
55288;SDS011;41154;45.394;5.734;2023-08-20T00:30:07;5.63;;;3.92;;
55288;SDS011;41154;45.394;5.734;2023-08-20T00:32:34;7.90;;;3.90;;
55288;SDS011;41154;45.394;5.734;2023-08-20T00:35:00;8.45;;;3.88;;
55288;SDS011;41154;45.394;5.734;2023-08-20T00:37:28;5.20;;;3.75;;
55288;SDS011;41154;45.394;5.734;2023-08-20T00:39:54;7.28;;;4.07;;
55288;SDS011;41154;45.394;5.734;2023-08-20T00:42:20;5.20;;;3.90;;
55288;SDS011;41154;45.394;5.734;2023-08-20T00:44:45;8.55;;;4.18;;
55288;SDS011;41154;45.394;5.734;2023-08-20T00:47:12;10.80;;;4.05;;
55288;SDS011;41154;45.394;5.734;2023-08-20T00:49:39;7.10;;;4.05;;
55288;SDS011;41154;45.394;5.734;2023-08-20T00:52:09;7.28;;;4.10;;
55288;SDS011;41154;45.394;5.734;2023-08-20T00:54:38;9.23;;;4.00;;
55288;SDS011;41154;45.394;5.734;2023-08-20T00:57:04;6.75;;;4.30;;
55288;SDS011;41154;45.394;5.734;2023-08-20T00:59:32;10.57;;;3.63;;
55288;SDS011;41154;45.394;5.734;2023-08-20T01:01:59;8.35;;;3.72;;
55288;SDS011;41154;45.394;5.734;2023-08-20T01:04:25;6.78;;;4.18;;
55288;SDS011;41154;45.394;5.734;2023-08-20T01:12:37;12.45;;;4.90;;
55288;SDS011;41154;45.394;5.734;2023-08-20T01:15:05;6.38;;;4.15;;
55288;SDS011;41154;45.394;5.734;2023-08-20T01:17:31;7.80;;;4.65;;
55288;SDS011;41154;45.394;5.734;2023-08-20T01:19:57;6.68;;;3.33;;
55288;SDS011;41154;45.394;5.734;2023-08-20T01:28:22;6.45;;;4.00;;
55288;SDS011;41154;45.394;5.734;2023-08-20T01:30:53;6.28;;;3.85;;
55288;SDS011;41154;45.394;5.734;2023-08-20T01:33:24;7.85;;;4.05;;
55288;SDS011;41154;45.394;5.734;2023-08-20T01:35:51;7.82;;;4.05;;
55288;SDS011;41154;45.394;5.734;2023-08-20T01:38:17;7.35;;;3.65;;
55288;SDS011;41154;45.394;5.734;2023-08-20T01:40:43;6.07;;;3.50;;
55288;SDS011;41154;45.394;5.734;2023-08-20T01:43:09;10.30;;;3.50;;
55288;SDS011;41154;45.394;5.734;2023-08-20T01:45:35;9.82;;;3.58;;
55288;SDS011;41154;45.394;5.734;2023-08-20T01:48:00;6.88;;;3.92;;
55288;SDS011;41154;45.394;5.734;2023-08-20T01:50:26;8.40;;;4.05;;
55288;SDS011;41154;45.394;5.734;2023-08-20T01:52:52;7.32;;;3.40;;
55288;SDS011;41154;45.394;5.734;2023-08-20T01:55:18;9.18;;;4.57;;
55288;SDS011;41154;45.394;5.734;2023-08-20T01:57:44;11.02;;;4.28;;
55288;SDS011;41154;45.394;5.734;2023-08-20T02:00:10;4.07;;;3.42;;
55288;SDS011;41154;45.394;5.734;2023-08-20T02:02:39;6.28;;;3.88;;
55288;SDS011;41154;45.394;5.734;2023-08-20T02:05:05;9.63;;;4.18;;
55288;SDS011;41154;45.394;5.734;2023-08-20T02:07:31;6.13;;;3.53;;
55288;SDS011;41154;45.394;5.734;2023-08-20T02:09:58;7.72;;;4.03;;
55288;SDS011;41154;45.394;5.734;2023-08-20T02:12:25;7.75;;;4.05;;
55288;SDS011;41154;45.394;5.734;2023-08-20T02:14:52;5.88;;;3.85;;
55288;SDS011;41154;45.394;5.734;2023-08-20T02:17:21;7.40;;;4.30;;
55288;SDS011;41154;45.394;5.734;2023-08-20T02:19:47;7.57;;;4.20;;
55288;SDS011;41154;45.394;5.734;2023-08-20T02:22:13;8.85;;;4.45;;
55288;SDS011;41154;45.394;5.734;2023-08-20T02:24:39;8.50;;;4.32;;
55288;SDS011;41154;45.394;5.734;2023-08-20T02:27:04;7.10;;;4.70;;
55288;SDS011;41154;45.394;5.734;2023-08-20T02:29:30;6.38;;;4.10;;
55288;SDS011;41154;45.394;5.734;2023-08-20T02:31:56;5.88;;;3.75;;
55288;SDS011;41154;45.394;5.734;2023-08-20T02:34:22;10.68;;;3.97;;
55288;SDS011;41154;45.394;5.734;2023-08-20T02:36:48;6.68;;;4.07;;
55288;SDS011;41154;45.394;5.734;2023-08-20T02:39:13;9.35;;;4.13;;
55288;SDS011;41154;45.394;5.734;2023-08-20T02:41:40;6.57;;;4.10;;
55288;SDS011;41154;45.394;5.734;2023-08-20T02:44:08;5.68;;;4.20;;
55288;SDS011;41154;45.394;5.734;2023-08-20T02:46:34;10.13;;;3.70;;
55288;SDS011;41154;45.394;5.734;2023-08-20T02:49:00;6.70;;;4.25;;
55288;SDS011;41154;45.394;5.734;2023-08-20T02:51:27;7.50;;;3.90;;
55288;SDS011;41154;45.394;5.734;2023-08-20T02:53:53;10.20;;;4.20;;
55288;SDS011;41154;45.394;5.734;2023-08-20T02:56:19;12.88;;;4.28;;
55288;SDS011;41154;45.394;5.734;2023-08-20T02:58:45;5.78;;;3.72;;
55288;SDS011;41154;45.394;5.734;2023-08-20T03:01:21;6.95;;;3.97;;
55288;SDS011;41154;45.394;5.734;2023-08-20T03:03:49;7.60;;;3.58;;
55288;SDS011;41154;45.394;5.734;2023-08-20T03:06:15;6.50;;;3.90;;
55288;SDS011;41154;45.394;5.734;2023-08-20T03:08:41;5.95;;;3.97;;
55288;SDS011;41154;45.394;5.734;2023-08-20T03:11:07;7.78;;;4.18;;
55288;SDS011;41154;45.394;5.734;2023-08-20T03:13:33;4.90;;;3.67;;
55288;SDS011;41154;45.394;5.734;2023-08-20T03:15:58;8.73;;;3.60;;
55288;SDS011;41154;45.394;5.734;2023-08-20T03:18:24;6.07;;;3.95;;
55288;SDS011;41154;45.394;5.734;2023-08-20T03:20:50;5.53;;;3.58;;
55288;SDS011;41154;45.394;5.734;2023-08-20T03:23:16;4.38;;;3.50;;
55288;SDS011;41154;45.394;5.734;2023-08-20T03:25:41;7.18;;;4.28;;
55288;SDS011;41154;45.394;5.734;2023-08-20T03:28:07;6.03;;;4.45;;
55288;SDS011;41154;45.394;5.734;2023-08-20T03:30:36;9.68;;;4.10;;
55288;SDS011;41154;45.394;5.734;2023-08-20T03:33:01;10.15;;;4.22;;
55288;SDS011;41154;45.394;5.734;2023-08-20T03:35:30;6.88;;;4.85;;
55288;SDS011;41154;45.394;5.734;2023-08-20T03:37:56;16.48;;;4.88;;
55288;SDS011;41154;45.394;5.734;2023-08-20T03:40:21;6.65;;;4.30;;
55288;SDS011;41154;45.394;5.734;2023-08-20T03:42:47;8.85;;;4.35;;
55288;SDS011;41154;45.394;5.734;2023-08-20T03:45:15;6.10;;;4.00;;
55288;SDS011;41154;45.394;5.734;2023-08-20T03:47:41;8.52;;;4.30;;
55288;SDS011;41154;45.394;5.734;2023-08-20T03:50:09;7.82;;;4.03;;
55288;SDS011;41154;45.394;5.734;2023-08-20T03:52:35;8.50;;;3.90;;
55288;SDS011;41154;45.394;5.734;2023-08-20T03:55:01;10.38;;;4.22;;
55288;SDS011;41154;45.394;5.734;2023-08-20T03:57:28;6.68;;;4.13;;
55288;SDS011;41154;45.394;5.734;2023-08-20T03:59:53;6.95;;;4.03;;
55288;SDS011;41154;45.394;5.734;2023-08-20T04:02:19;7.63;;;4.18;;
55288;SDS011;41154;45.394;5.734;2023-08-20T04:04:44;8.60;;;4.53;;
55288;SDS011;41154;45.394;5.734;2023-08-20T04:07:11;8.93;;;4.50;;
55288;SDS011;41154;45.394;5.734;2023-08-20T04:09:37;7.15;;;3.75;;
55288;SDS011;41154;45.394;5.734;2023-08-20T04:12:04;7.80;;;3.70;;
55288;SDS011;41154;45.394;5.734;2023-08-20T04:14:32;5.53;;;3.80;;
55288;SDS011;41154;45.394;5.734;2023-08-20T04:16:58;10.05;;;4.07;;
55288;SDS011;41154;45.394;5.734;2023-08-20T04:19:24;6.95;;;4.05;;
55288;SDS011;41154;45.394;5.734;2023-08-20T04:21:50;6.05;;;3.92;;
55288;SDS011;41154;45.394;5.734;2023-08-20T04:24:16;7.15;;;4.20;;
55288;SDS011;41154;45.394;5.734;2023-08-20T04:26:43;5.75;;;4.00;;
55288;SDS011;41154;45.394;5.734;2023-08-20T04:29:09;6.28;;;3.90;;
55288;SDS011;41154;45.394;5.734;2023-08-20T04:31:35;6.68;;;4.00;;
55288;SDS011;41154;45.394;5.734;2023-08-20T04:34:06;5.45;;;3.75;;
55288;SDS011;41154;45.394;5.734;2023-08-20T04:36:42;8.57;;;4.07;;
55288;SDS011;41154;45.394;5.734;2023-08-20T04:39:08;8.02;;;4.38;;
55288;SDS011;41154;45.394;5.734;2023-08-20T04:41:37;6.45;;;3.70;;
55288;SDS011;41154;45.394;5.734;2023-08-20T04:44:05;6.40;;;4.00;;
55288;SDS011;41154;45.394;5.734;2023-08-20T04:46:32;6.43;;;3.78;;
55288;SDS011;41154;45.394;5.734;2023-08-20T04:48:58;6.25;;;3.80;;
55288;SDS011;41154;45.394;5.734;2023-08-20T04:51:23;8.15;;;4.55;;
55288;SDS011;41154;45.394;5.734;2023-08-20T04:53:50;8.55;;;3.92;;
55288;SDS011;41154;45.394;5.734;2023-08-20T04:56:18;7.50;;;3.70;;
55288;SDS011;41154;45.394;5.734;2023-08-20T04:58:44;11.48;;;4.20;;
55288;SDS011;41154;45.394;5.734;2023-08-20T05:01:11;7.40;;;4.07;;
55288;SDS011;41154;45.394;5.734;2023-08-20T05:03:37;7.45;;;4.32;;
55288;SDS011;41154;45.394;5.734;2023-08-20T05:06:03;7.85;;;4.43;;
55288;SDS011;41154;45.394;5.734;2023-08-20T05:08:29;6.93;;;3.97;;
55288;SDS011;41154;45.394;5.734;2023-08-20T05:10:55;6.55;;;4.07;;
55288;SDS011;41154;45.394;5.734;2023-08-20T05:13:21;7.57;;;4.00;;
55288;SDS011;41154;45.394;5.734;2023-08-20T05:15:48;7.18;;;4.63;;
55288;SDS011;41154;45.394;5.734;2023-08-20T05:18:14;9.30;;;4.18;;
55288;SDS011;41154;45.394;5.734;2023-08-20T05:20:40;8.55;;;4.10;;
55288;SDS011;41154;45.394;5.734;2023-08-20T05:23:10;11.27;;;4.45;;
55288;SDS011;41154;45.394;5.734;2023-08-20T05:25:35;9.65;;;4.72;;
55288;SDS011;41154;45.394;5.734;2023-08-20T05:28:02;6.55;;;4.10;;
55288;SDS011;41154;45.394;5.734;2023-08-20T05:30:36;6.35;;;3.80;;
55288;SDS011;41154;45.394;5.734;2023-08-20T05:33:05;8.10;;;4.20;;
55288;SDS011;41154;45.394;5.734;2023-08-20T05:35:35;6.90;;;4.13;;
55288;SDS011;41154;45.394;5.734;2023-08-20T05:38:04;6.57;;;4.28;;
55288;SDS011;41154;45.394;5.734;2023-08-20T05:40:29;9.85;;;4.38;;
55288;SDS011;41154;45.394;5.734;2023-08-20T05:42:55;5.82;;;3.95;;
55288;SDS011;41154;45.394;5.734;2023-08-20T05:45:22;10.48;;;4.10;;
55288;SDS011;41154;45.394;5.734;2023-08-20T05:47:49;8.40;;;4.22;;
55288;SDS011;41154;45.394;5.734;2023-08-20T05:50:15;5.53;;;3.85;;
55288;SDS011;41154;45.394;5.734;2023-08-20T05:52:41;8.20;;;4.32;;
55288;SDS011;41154;45.394;5.734;2023-08-20T05:55:07;9.73;;;4.07;;
55288;SDS011;41154;45.394;5.734;2023-08-20T05:57:33;7.70;;;4.43;;
55288;SDS011;41154;45.394;5.734;2023-08-20T06:00:03;9.13;;;4.18;;
55288;SDS011;41154;45.394;5.734;2023-08-20T06:02:38;6.35;;;4.35;;
55288;SDS011;41154;45.394;5.734;2023-08-20T06:05:05;6.00;;;4.45;;
55288;SDS011;41154;45.394;5.734;2023-08-20T06:07:31;6.93;;;4.18;;
55288;SDS011;41154;45.394;5.734;2023-08-20T06:09:56;8.65;;;4.70;;
55288;SDS011;41154;45.394;5.734;2023-08-20T06:15:44;8.18;;;3.97;;
55288;SDS011;41154;45.394;5.734;2023-08-20T06:18:10;7.82;;;3.72;;
55288;SDS011;41154;45.394;5.734;2023-08-20T06:20:36;7.28;;;4.10;;
55288;SDS011;41154;45.394;5.734;2023-08-20T06:23:01;8.75;;;3.92;;
55288;SDS011;41154;45.394;5.734;2023-08-20T06:25:27;6.95;;;3.45;;
55288;SDS011;41154;45.394;5.734;2023-08-20T06:27:53;10.93;;;4.10;;
55288;SDS011;41154;45.394;5.734;2023-08-20T06:30:19;6.53;;;3.65;;
55288;SDS011;41154;45.394;5.734;2023-08-20T06:32:44;6.80;;;3.30;;
55288;SDS011;41154;45.394;5.734;2023-08-20T06:35:10;5.35;;;3.47;;
55288;SDS011;41154;45.394;5.734;2023-08-20T06:37:38;5.65;;;3.60;;
55288;SDS011;41154;45.394;5.734;2023-08-20T06:40:08;5.93;;;3.20;;
55288;SDS011;41154;45.394;5.734;2023-08-20T06:42:34;7.95;;;3.55;;
55288;SDS011;41154;45.394;5.734;2023-08-20T06:45:00;9.57;;;3.20;;
55288;SDS011;41154;45.394;5.734;2023-08-20T06:47:26;6.95;;;3.53;;
55288;SDS011;41154;45.394;5.734;2023-08-20T06:49:52;6.75;;;3.47;;
55288;SDS011;41154;45.394;5.734;2023-08-20T06:52:20;4.97;;;3.28;;
55288;SDS011;41154;45.394;5.734;2023-08-20T06:54:46;5.70;;;2.97;;
55288;SDS011;41154;45.394;5.734;2023-08-20T06:57:12;5.75;;;3.05;;
55288;SDS011;41154;45.394;5.734;2023-08-20T06:59:38;6.35;;;3.20;;
55288;SDS011;41154;45.394;5.734;2023-08-20T07:02:04;4.93;;;2.90;;
55288;SDS011;41154;45.394;5.734;2023-08-20T07:04:30;6.13;;;2.80;;
55288;SDS011;41154;45.394;5.734;2023-08-20T07:06:56;4.05;;;3.25;;
55288;SDS011;41154;45.394;5.734;2023-08-20T07:09:22;5.68;;;3.13;;
55288;SDS011;41154;45.394;5.734;2023-08-20T07:11:48;8.65;;;2.97;;
55288;SDS011;41154;45.394;5.734;2023-08-20T07:14:14;9.07;;;3.03;;
55288;SDS011;41154;45.394;5.734;2023-08-20T07:16:39;7.32;;;3.00;;
55288;SDS011;41154;45.394;5.734;2023-08-20T07:19:05;9.23;;;3.10;;
55288;SDS011;41154;45.394;5.734;2023-08-20T07:21:31;9.70;;;3.28;;
55288;SDS011;41154;45.394;5.734;2023-08-20T07:23:57;5.80;;;3.28;;
55288;SDS011;41154;45.394;5.734;2023-08-20T07:26:23;6.45;;;2.88;;
55288;SDS011;41154;45.394;5.734;2023-08-20T07:28:49;6.82;;;3.50;;
55288;SDS011;41154;45.394;5.734;2023-08-20T07:31:28;8.45;;;3.15;;
55288;SDS011;41154;45.394;5.734;2023-08-20T07:33:56;7.53;;;3.00;;
55288;SDS011;41154;45.394;5.734;2023-08-20T07:36:23;5.57;;;2.83;;
55288;SDS011;41154;45.394;5.734;2023-08-20T07:38:50;9.13;;;3.20;;
55288;SDS011;41154;45.394;5.734;2023-08-20T07:41:17;6.03;;;2.97;;
55288;SDS011;41154;45.394;5.734;2023-08-20T07:43:45;7.03;;;3.10;;
55288;SDS011;41154;45.394;5.734;2023-08-20T07:46:11;7.00;;;3.03;;
55288;SDS011;41154;45.394;5.734;2023-08-20T07:48:37;7.38;;;3.45;;
55288;SDS011;41154;45.394;5.734;2023-08-20T07:51:03;6.38;;;2.88;;
55288;SDS011;41154;45.394;5.734;2023-08-20T07:53:30;9.10;;;2.95;;
55288;SDS011;41154;45.394;5.734;2023-08-20T07:55:56;3.92;;;2.80;;
55288;SDS011;41154;45.394;5.734;2023-08-20T07:58:22;6.90;;;3.28;;
55288;SDS011;41154;45.394;5.734;2023-08-20T08:00:48;8.60;;;3.20;;
55288;SDS011;41154;45.394;5.734;2023-08-20T08:03:14;8.75;;;3.00;;
55288;SDS011;41154;45.394;5.734;2023-08-20T08:05:45;12.00;;;3.00;;
55288;SDS011;41154;45.394;5.734;2023-08-20T08:08:15;7.88;;;3.10;;
55288;SDS011;41154;45.394;5.734;2023-08-20T08:10:44;4.25;;;2.63;;
55288;SDS011;41154;45.394;5.734;2023-08-20T08:13:14;9.07;;;2.95;;
55288;SDS011;41154;45.394;5.734;2023-08-20T08:15:41;10.73;;;2.83;;
55288;SDS011;41154;45.394;5.734;2023-08-20T08:18:08;8.35;;;2.83;;
55288;SDS011;41154;45.394;5.734;2023-08-20T08:20:34;8.75;;;2.72;;
55288;SDS011;41154;45.394;5.734;2023-08-20T08:23:00;8.75;;;2.90;;
55288;SDS011;41154;45.394;5.734;2023-08-20T08:25:27;5.63;;;2.65;;
55288;SDS011;41154;45.394;5.734;2023-08-20T08:27:52;7.30;;;3.08;;
55288;SDS011;41154;45.394;5.734;2023-08-20T08:30:18;7.18;;;2.63;;
55288;SDS011;41154;45.394;5.734;2023-08-20T08:32:44;7.85;;;3.00;;
55288;SDS011;41154;45.394;5.734;2023-08-20T08:35:10;7.80;;;3.17;;
55288;SDS011;41154;45.394;5.734;2023-08-20T08:37:36;9.07;;;3.05;;
55288;SDS011;41154;45.394;5.734;2023-08-20T08:40:03;7.95;;;3.13;;
55288;SDS011;41154;45.394;5.734;2023-08-20T08:42:32;6.85;;;3.38;;
55288;SDS011;41154;45.394;5.734;2023-08-20T08:44:59;5.43;;;2.80;;
55288;SDS011;41154;45.394;5.734;2023-08-20T08:47:25;5.38;;;2.63;;
55288;SDS011;41154;45.394;5.734;2023-08-20T08:49:52;6.10;;;2.90;;
55288;SDS011;41154;45.394;5.734;2023-08-20T08:52:22;5.10;;;2.80;;
55288;SDS011;41154;45.394;5.734;2023-08-20T08:54:49;5.70;;;2.92;;
55288;SDS011;41154;45.394;5.734;2023-08-20T08:57:15;9.27;;;2.92;;
55288;SDS011;41154;45.394;5.734;2023-08-20T08:59:42;6.82;;;2.42;;
55288;SDS011;41154;45.394;5.734;2023-08-20T09:02:08;6.18;;;2.80;;
55288;SDS011;41154;45.394;5.734;2023-08-20T09:04:39;6.38;;;2.70;;
55288;SDS011;41154;45.394;5.734;2023-08-20T09:07:05;6.85;;;2.78;;
55288;SDS011;41154;45.394;5.734;2023-08-20T09:09:37;6.78;;;2.97;;
55288;SDS011;41154;45.394;5.734;2023-08-20T09:12:11;9.65;;;2.67;;
55288;SDS011;41154;45.394;5.734;2023-08-20T09:14:47;5.47;;;2.95;;
55288;SDS011;41154;45.394;5.734;2023-08-20T09:17:16;5.32;;;2.90;;
55288;SDS011;41154;45.394;5.734;2023-08-20T09:19:43;10.98;;;2.92;;
55288;SDS011;41154;45.394;5.734;2023-08-20T09:22:13;4.78;;;2.60;;
55288;SDS011;41154;45.394;5.734;2023-08-20T09:27:12;6.13;;;2.90;;
55288;SDS011;41154;45.394;5.734;2023-08-20T09:29:47;4.95;;;2.67;;
55288;SDS011;41154;45.394;5.734;2023-08-20T09:32:20;7.38;;;2.97;;
55288;SDS011;41154;45.394;5.734;2023-08-20T09:34:48;6.45;;;2.40;;
55288;SDS011;41154;45.394;5.734;2023-08-20T09:37:17;8.50;;;3.22;;
55288;SDS011;41154;45.394;5.734;2023-08-20T09:39:44;6.70;;;2.78;;
55288;SDS011;41154;45.394;5.734;2023-08-20T09:42:10;9.00;;;3.38;;
55288;SDS011;41154;45.394;5.734;2023-08-20T09:44:41;6.53;;;3.03;;
55288;SDS011;41154;45.394;5.734;2023-08-20T09:47:17;7.45;;;2.90;;
55288;SDS011;41154;45.394;5.734;2023-08-20T09:49:45;10.38;;;3.13;;
55288;SDS011;41154;45.394;5.734;2023-08-20T09:52:31;7.00;;;3.15;;
55288;SDS011;41154;45.394;5.734;2023-08-20T09:57:42;7.47;;;3.25;;
55288;SDS011;41154;45.394;5.734;2023-08-20T10:00:08;8.80;;;3.80;;
55288;SDS011;41154;45.394;5.734;2023-08-20T10:02:41;8.50;;;3.07;;
55288;SDS011;41154;45.394;5.734;2023-08-20T10:05:08;9.85;;;3.30;;
55288;SDS011;41154;45.394;5.734;2023-08-20T10:07:35;6.82;;;2.70;;
55288;SDS011;41154;45.394;5.734;2023-08-20T10:10:03;8.80;;;3.13;;
55288;SDS011;41154;45.394;5.734;2023-08-20T10:12:30;6.55;;;2.90;;
55288;SDS011;41154;45.394;5.734;2023-08-20T10:14:57;8.15;;;3.22;;
55288;SDS011;41154;45.394;5.734;2023-08-20T10:17:28;8.73;;;2.88;;
55288;SDS011;41154;45.394;5.734;2023-08-20T10:19:55;8.35;;;3.28;;
55288;SDS011;41154;45.394;5.734;2023-08-20T10:22:28;7.35;;;3.17;;
55288;SDS011;41154;45.394;5.734;2023-08-20T10:24:57;6.65;;;2.78;;
55288;SDS011;41154;45.394;5.734;2023-08-20T10:27:27;13.63;;;3.75;;
55288;SDS011;41154;45.394;5.734;2023-08-20T10:29:56;6.40;;;3.20;;
55288;SDS011;41154;45.394;5.734;2023-08-20T10:32:43;7.32;;;3.45;;
55288;SDS011;41154;45.394;5.734;2023-08-20T10:35:26;11.85;;;3.35;;
55288;SDS011;41154;45.394;5.734;2023-08-20T10:38:12;7.05;;;2.75;;
55288;SDS011;41154;45.394;5.734;2023-08-20T10:40:58;6.55;;;3.13;;
55288;SDS011;41154;45.394;5.734;2023-08-20T10:46:17;6.95;;;2.83;;
55288;SDS011;41154;45.394;5.734;2023-08-20T10:48:49;6.93;;;3.00;;
55288;SDS011;41154;45.394;5.734;2023-08-20T10:56:39;11.45;;;3.40;;
55288;SDS011;41154;45.394;5.734;2023-08-20T10:59:16;5.45;;;2.95;;
55288;SDS011;41154;45.394;5.734;2023-08-20T11:01:45;6.82;;;3.10;;
55288;SDS011;41154;45.394;5.734;2023-08-20T11:04:15;8.70;;;3.42;;
55288;SDS011;41154;45.394;5.734;2023-08-20T11:06:44;9.95;;;3.22;;
55288;SDS011;41154;45.394;5.734;2023-08-20T11:09:11;11.05;;;3.70;;
55288;SDS011;41154;45.394;5.734;2023-08-20T11:11:38;7.63;;;2.83;;
55288;SDS011;41154;45.394;5.734;2023-08-20T11:14:06;5.50;;;3.17;;
55288;SDS011;41154;45.394;5.734;2023-08-20T11:16:36;10.40;;;3.83;;
55288;SDS011;41154;45.394;5.734;2023-08-20T11:19:02;7.82;;;2.80;;
55288;SDS011;41154;45.394;5.734;2023-08-20T11:21:33;6.32;;;3.22;;
55288;SDS011;41154;45.394;5.734;2023-08-20T11:24:03;5.63;;;2.88;;
55288;SDS011;41154;45.394;5.734;2023-08-20T11:26:30;6.25;;;2.85;;
55288;SDS011;41154;45.394;5.734;2023-08-20T11:28:56;6.93;;;3.42;;
55288;SDS011;41154;45.394;5.734;2023-08-20T11:31:22;6.97;;;2.78;;
55288;SDS011;41154;45.394;5.734;2023-08-20T11:33:49;9.00;;;3.53;;
55288;SDS011;41154;45.394;5.734;2023-08-20T11:36:15;9.00;;;3.35;;
55288;SDS011;41154;45.394;5.734;2023-08-20T11:38:49;8.27;;;2.90;;
55288;SDS011;41154;45.394;5.734;2023-08-20T11:41:17;7.50;;;2.95;;
55288;SDS011;41154;45.394;5.734;2023-08-20T11:43:44;6.53;;;3.25;;
55288;SDS011;41154;45.394;5.734;2023-08-20T11:46:17;7.75;;;3.05;;
55288;SDS011;41154;45.394;5.734;2023-08-20T11:54:47;8.90;;;3.55;;
55288;SDS011;41154;45.394;5.734;2023-08-20T11:57:13;5.57;;;2.65;;
55288;SDS011;41154;45.394;5.734;2023-08-20T11:59:38;6.72;;;2.83;;
55288;SDS011;41154;45.394;5.734;2023-08-20T12:02:04;6.93;;;2.90;;
55288;SDS011;41154;45.394;5.734;2023-08-20T12:08:17;9.95;;;3.55;;
55288;SDS011;41154;45.394;5.734;2023-08-20T12:10:43;9.45;;;3.28;;
55288;SDS011;41154;45.394;5.734;2023-08-20T12:13:10;6.65;;;2.58;;
55288;SDS011;41154;45.394;5.734;2023-08-20T12:15:36;6.22;;;2.90;;
55288;SDS011;41154;45.394;5.734;2023-08-20T12:18:02;8.30;;;2.65;;
55288;SDS011;41154;45.394;5.734;2023-08-20T12:20:34;4.97;;;2.90;;
55288;SDS011;41154;45.394;5.734;2023-08-20T12:23:01;9.70;;;3.50;;
55288;SDS011;41154;45.394;5.734;2023-08-20T12:25:30;9.55;;;3.25;;
55288;SDS011;41154;45.394;5.734;2023-08-20T12:27:57;7.57;;;2.90;;
55288;SDS011;41154;45.394;5.734;2023-08-20T12:30:23;7.70;;;3.03;;
55288;SDS011;41154;45.394;5.734;2023-08-20T12:32:49;8.13;;;2.80;;
55288;SDS011;41154;45.394;5.734;2023-08-20T12:35:14;7.43;;;3.15;;
55288;SDS011;41154;45.394;5.734;2023-08-20T12:37:40;5.53;;;2.70;;
55288;SDS011;41154;45.394;5.734;2023-08-20T12:40:06;6.57;;;3.20;;
55288;SDS011;41154;45.394;5.734;2023-08-20T12:42:38;8.63;;;2.78;;
55288;SDS011;41154;45.394;5.734;2023-08-20T12:45:08;9.18;;;2.72;;
55288;SDS011;41154;45.394;5.734;2023-08-20T12:47:35;4.80;;;2.47;;
55288;SDS011;41154;45.394;5.734;2023-08-20T12:50:01;6.13;;;2.90;;
55288;SDS011;41154;45.394;5.734;2023-08-20T12:52:29;6.25;;;2.50;;
55288;SDS011;41154;45.394;5.734;2023-08-20T12:54:55;14.10;;;2.60;;
55288;SDS011;41154;45.394;5.734;2023-08-20T12:57:21;7.35;;;2.95;;
55288;SDS011;41154;45.394;5.734;2023-08-20T12:59:47;6.75;;;2.60;;
55288;SDS011;41154;45.394;5.734;2023-08-20T13:02:12;8.00;;;2.40;;
55288;SDS011;41154;45.394;5.734;2023-08-20T13:04:38;7.40;;;2.72;;
55288;SDS011;41154;45.394;5.734;2023-08-20T13:07:04;6.32;;;2.60;;
55288;SDS011;41154;45.394;5.734;2023-08-20T13:09:30;7.35;;;2.90;;
55288;SDS011;41154;45.394;5.734;2023-08-20T13:11:57;7.20;;;3.05;;
55288;SDS011;41154;45.394;5.734;2023-08-20T13:14:25;9.93;;;2.78;;
55288;SDS011;41154;45.394;5.734;2023-08-20T13:16:51;11.20;;;2.83;;
55288;SDS011;41154;45.394;5.734;2023-08-20T13:19:17;6.07;;;2.78;;
55288;SDS011;41154;45.394;5.734;2023-08-20T13:21:43;8.75;;;2.53;;
55288;SDS011;41154;45.394;5.734;2023-08-20T13:24:09;4.10;;;2.53;;
55288;SDS011;41154;45.394;5.734;2023-08-20T13:26:34;9.13;;;2.97;;
55288;SDS011;41154;45.394;5.734;2023-08-20T13:29:00;8.02;;;2.92;;
55288;SDS011;41154;45.394;5.734;2023-08-20T13:31:26;8.80;;;3.25;;
55288;SDS011;41154;45.394;5.734;2023-08-20T13:33:52;7.88;;;3.10;;
55288;SDS011;41154;45.394;5.734;2023-08-20T13:36:17;6.07;;;3.05;;
55288;SDS011;41154;45.394;5.734;2023-08-20T13:38:43;7.18;;;2.75;;
55288;SDS011;41154;45.394;5.734;2023-08-20T13:41:08;7.78;;;2.58;;
55288;SDS011;41154;45.394;5.734;2023-08-20T13:43:34;7.47;;;2.67;;
55288;SDS011;41154;45.394;5.734;2023-08-20T13:46:00;8.02;;;2.80;;
55288;SDS011;41154;45.394;5.734;2023-08-20T13:48:26;9.70;;;2.95;;
55288;SDS011;41154;45.394;5.734;2023-08-20T13:50:52;8.73;;;3.25;;
55288;SDS011;41154;45.394;5.734;2023-08-20T13:53:18;7.22;;;3.10;;
55288;SDS011;41154;45.394;5.734;2023-08-20T13:55:43;6.95;;;2.53;;
55288;SDS011;41154;45.394;5.734;2023-08-20T13:58:09;7.93;;;2.47;;
55288;SDS011;41154;45.394;5.734;2023-08-20T14:00:35;7.25;;;2.53;;
55288;SDS011;41154;45.394;5.734;2023-08-20T14:03:01;4.80;;;2.45;;
55288;SDS011;41154;45.394;5.734;2023-08-20T14:05:26;5.00;;;2.60;;
55288;SDS011;41154;45.394;5.734;2023-08-20T14:07:54;4.47;;;2.50;;
55288;SDS011;41154;45.394;5.734;2023-08-20T14:10:20;5.15;;;2.40;;
55288;SDS011;41154;45.394;5.734;2023-08-20T14:12:45;5.43;;;2.85;;
55288;SDS011;41154;45.394;5.734;2023-08-20T14:15:11;7.35;;;2.60;;
55288;SDS011;41154;45.394;5.734;2023-08-20T14:17:37;5.20;;;2.30;;
55288;SDS011;41154;45.394;5.734;2023-08-20T14:20:03;9.90;;;2.67;;
55288;SDS011;41154;45.394;5.734;2023-08-20T14:22:30;5.55;;;2.50;;
55288;SDS011;41154;45.394;5.734;2023-08-20T14:24:56;6.57;;;2.40;;
55288;SDS011;41154;45.394;5.734;2023-08-20T14:27:22;13.68;;;2.70;;
55288;SDS011;41154;45.394;5.734;2023-08-20T14:29:48;7.90;;;2.78;;
55288;SDS011;41154;45.394;5.734;2023-08-20T14:32:13;7.82;;;2.55;;
55288;SDS011;41154;45.394;5.734;2023-08-20T14:34:39;7.50;;;2.42;;
55288;SDS011;41154;45.394;5.734;2023-08-20T14:37:05;5.30;;;2.58;;
55288;SDS011;41154;45.394;5.734;2023-08-20T14:39:31;4.70;;;2.67;;
55288;SDS011;41154;45.394;5.734;2023-08-20T14:41:57;6.47;;;2.42;;
55288;SDS011;41154;45.394;5.734;2023-08-20T14:44:24;7.95;;;2.63;;
55288;SDS011;41154;45.394;5.734;2023-08-20T14:46:49;7.28;;;2.72;;
55288;SDS011;41154;45.394;5.734;2023-08-20T14:49:15;6.47;;;2.20;;
55288;SDS011;41154;45.394;5.734;2023-08-20T14:51:44;7.43;;;2.75;;
55288;SDS011;41154;45.394;5.734;2023-08-20T14:54:09;7.63;;;2.97;;
55288;SDS011;41154;45.394;5.734;2023-08-20T14:56:35;7.75;;;2.58;;
55288;SDS011;41154;45.394;5.734;2023-08-20T14:59:00;6.18;;;2.92;;
55288;SDS011;41154;45.394;5.734;2023-08-20T15:01:26;11.85;;;2.40;;
55288;SDS011;41154;45.394;5.734;2023-08-20T15:03:52;7.82;;;3.05;;
55288;SDS011;41154;45.394;5.734;2023-08-20T15:06:19;4.35;;;2.70;;
55288;SDS011;41154;45.394;5.734;2023-08-20T15:08:47;7.90;;;2.63;;
55288;SDS011;41154;45.394;5.734;2023-08-20T15:11:13;6.18;;;2.33;;
55288;SDS011;41154;45.394;5.734;2023-08-20T15:13:39;6.60;;;2.28;;
55288;SDS011;41154;45.394;5.734;2023-08-20T15:16:05;9.10;;;2.35;;
55288;SDS011;41154;45.394;5.734;2023-08-20T15:18:30;8.00;;;2.30;;
55288;SDS011;41154;45.394;5.734;2023-08-20T15:20:56;6.10;;;2.40;;
55288;SDS011;41154;45.394;5.734;2023-08-20T15:23:38;8.93;;;2.42;;